sensor_id;sensor_type;location;lat;lon;timestamp;P1;durP1;ratioP1;P2;durP2;ratioP2
66012;SDS011;52783;50.502;8.190;2023-01-06T00:00:22;10.55;;;3.42;;
66012;SDS011;52783;50.502;8.190;2023-01-06T00:02:48;12.10;;;3.97;;
66012;SDS011;52783;50.502;8.190;2023-01-06T00:05:14;7.80;;;3.85;;
66012;SDS011;52783;50.502;8.190;2023-01-06T00:07:40;11.68;;;4.40;;
66012;SDS011;52783;50.502;8.190;2023-01-06T00:10:06;11.43;;;4.03;;
66012;SDS011;52783;50.502;8.190;2023-01-06T00:12:32;13.50;;;4.47;;
66012;SDS011;52783;50.502;8.190;2023-01-06T00:14:58;10.10;;;4.00;;
66012;SDS011;52783;50.502;8.190;2023-01-06T00:17:23;10.82;;;4.53;;
66012;SDS011;52783;50.502;8.190;2023-01-06T00:19:49;14.70;;;4.40;;
66012;SDS011;52783;50.502;8.190;2023-01-06T00:22:15;15.75;;;4.65;;
66012;SDS011;52783;50.502;8.190;2023-01-06T00:24:41;16.50;;;4.43;;
66012;SDS011;52783;50.502;8.190;2023-01-06T00:27:07;18.80;;;4.15;;
66012;SDS011;52783;50.502;8.190;2023-01-06T00:29:32;10.00;;;3.97;;
66012;SDS011;52783;50.502;8.190;2023-01-06T00:31:59;11.07;;;4.70;;
66012;SDS011;52783;50.502;8.190;2023-01-06T00:34:25;16.30;;;4.80;;
66012;SDS011;52783;50.502;8.190;2023-01-06T00:36:51;9.05;;;4.68;;
66012;SDS011;52783;50.502;8.190;2023-01-06T00:39:16;8.90;;;4.72;;
66012;SDS011;52783;50.502;8.190;2023-01-06T00:41:42;16.77;;;4.93;;
66012;SDS011;52783;50.502;8.190;2023-01-06T00:44:26;11.65;;;4.63;;
66012;SDS011;52783;50.502;8.190;2023-01-06T00:46:52;15.57;;;4.90;;
66012;SDS011;52783;50.502;8.190;2023-01-06T00:49:17;15.27;;;4.70;;
66012;SDS011;52783;50.502;8.190;2023-01-06T00:51:43;9.77;;;5.20;;
66012;SDS011;52783;50.502;8.190;2023-01-06T00:54:09;9.90;;;4.53;;
66012;SDS011;52783;50.502;8.190;2023-01-06T00:56:36;11.10;;;4.57;;
66012;SDS011;52783;50.502;8.190;2023-01-06T00:59:03;10.07;;;4.78;;
66012;SDS011;52783;50.502;8.190;2023-01-06T01:01:29;10.30;;;5.60;;
66012;SDS011;52783;50.502;8.190;2023-01-06T01:03:55;10.77;;;5.25;;
66012;SDS011;52783;50.502;8.190;2023-01-06T01:06:21;11.93;;;5.72;;
66012;SDS011;52783;50.502;8.190;2023-01-06T01:08:47;12.27;;;4.85;;
66012;SDS011;52783;50.502;8.190;2023-01-06T01:11:17;9.85;;;5.03;;
66012;SDS011;52783;50.502;8.190;2023-01-06T01:14:01;9.57;;;4.80;;
66012;SDS011;52783;50.502;8.190;2023-01-06T01:16:27;10.55;;;5.47;;
66012;SDS011;52783;50.502;8.190;2023-01-06T01:18:52;10.02;;;5.03;;
66012;SDS011;52783;50.502;8.190;2023-01-06T01:21:18;11.55;;;5.75;;
66012;SDS011;52783;50.502;8.190;2023-01-06T01:23:44;8.05;;;5.07;;
66012;SDS011;52783;50.502;8.190;2023-01-06T01:26:09;13.63;;;6.05;;
66012;SDS011;52783;50.502;8.190;2023-01-06T01:28:35;10.25;;;5.72;;
66012;SDS011;52783;50.502;8.190;2023-01-06T01:31:00;8.48;;;4.70;;
66012;SDS011;52783;50.502;8.190;2023-01-06T01:33:30;13.73;;;5.40;;
66012;SDS011;52783;50.502;8.190;2023-01-06T01:35:56;8.77;;;5.70;;
66012;SDS011;52783;50.502;8.190;2023-01-06T01:38:24;17.60;;;5.78;;
66012;SDS011;52783;50.502;8.190;2023-01-06T01:40:50;11.02;;;4.65;;
66012;SDS011;52783;50.502;8.190;2023-01-06T01:43:16;7.97;;;5.05;;
66012;SDS011;52783;50.502;8.190;2023-01-06T01:45:42;14.07;;;5.30;;
66012;SDS011;52783;50.502;8.190;2023-01-06T01:48:21;11.98;;;5.00;;
66012;SDS011;52783;50.502;8.190;2023-01-06T01:50:52;10.73;;;5.28;;
66012;SDS011;52783;50.502;8.190;2023-01-06T01:55:50;10.43;;;4.82;;
66012;SDS011;52783;50.502;8.190;2023-01-06T01:58:22;9.40;;;5.13;;
66012;SDS011;52783;50.502;8.190;2023-01-06T02:01:15;11.45;;;5.15;;
66012;SDS011;52783;50.502;8.190;2023-01-06T02:03:40;15.98;;;5.35;;
66012;SDS011;52783;50.502;8.190;2023-01-06T02:06:09;6.47;;;4.18;;
66012;SDS011;52783;50.502;8.190;2023-01-06T02:08:45;8.57;;;5.25;;
66012;SDS011;52783;50.502;8.190;2023-01-06T02:11:19;10.73;;;5.13;;
66012;SDS011;52783;50.502;8.190;2023-01-06T02:13:46;9.07;;;5.10;;
66012;SDS011;52783;50.502;8.190;2023-01-06T02:16:20;9.60;;;5.72;;
66012;SDS011;52783;50.502;8.190;2023-01-06T02:19:01;12.93;;;5.95;;
66012;SDS011;52783;50.502;8.190;2023-01-06T02:24:52;11.20;;;5.00;;
66012;SDS011;52783;50.502;8.190;2023-01-06T02:30:37;12.52;;;4.90;;
66012;SDS011;52783;50.502;8.190;2023-01-06T02:45:22;10.60;;;3.35;;
66012;SDS011;52783;50.502;8.190;2023-01-06T02:51:03;4.10;;;2.90;;
66012;SDS011;52783;50.502;8.190;2023-01-06T02:53:47;3.63;;;2.60;;
66012;SDS011;52783;50.502;8.190;2023-01-06T02:56:30;6.70;;;3.03;;
66012;SDS011;52783;50.502;8.190;2023-01-06T02:59:04;6.97;;;2.72;;
66012;SDS011;52783;50.502;8.190;2023-01-06T03:01:39;3.20;;;2.22;;
66012;SDS011;52783;50.502;8.190;2023-01-06T03:04:08;1.17;;;1.08;;
66012;SDS011;52783;50.502;8.190;2023-01-06T03:06:40;1.00;;;1.00;;
66012;SDS011;52783;50.502;8.190;2023-01-06T03:09:10;0.60;;;0.60;;
66012;SDS011;52783;50.502;8.190;2023-01-06T03:11:38;0.50;;;0.50;;
66012;SDS011;52783;50.502;8.190;2023-01-06T03:16:53;0.50;;;0.50;;
66012;SDS011;52783;50.502;8.190;2023-01-06T03:19:19;0.38;;;0.38;;
66012;SDS011;52783;50.502;8.190;2023-01-06T03:21:45;0.40;;;0.40;;
66012;SDS011;52783;50.502;8.190;2023-01-06T03:24:14;0.40;;;0.40;;
66012;SDS011;52783;50.502;8.190;2023-01-06T03:26:42;0.40;;;0.30;;
66012;SDS011;52783;50.502;8.190;2023-01-06T03:29:09;1.98;;;0.68;;
66012;SDS011;52783;50.502;8.190;2023-01-06T03:31:48;0.50;;;0.50;;
66012;SDS011;52783;50.502;8.190;2023-01-06T03:37:07;1.27;;;0.63;;
66012;SDS011;52783;50.502;8.190;2023-01-06T03:42:46;0.38;;;0.38;;
66012;SDS011;52783;50.502;8.190;2023-01-06T03:53:57;0.68;;;0.32;;
66012;SDS011;52783;50.502;8.190;2023-01-06T03:56:49;0.50;;;0.50;;
66012;SDS011;52783;50.502;8.190;2023-01-06T03:59:22;0.20;;;0.20;;
66012;SDS011;52783;50.502;8.190;2023-01-06T04:01:52;3.00;;;0.30;;
66012;SDS011;52783;50.502;8.190;2023-01-06T04:04:18;1.30;;;0.50;;
66012;SDS011;52783;50.502;8.190;2023-01-06T04:06:44;0.95;;;0.57;;
66012;SDS011;52783;50.502;8.190;2023-01-06T04:09:09;0.52;;;0.52;;
66012;SDS011;52783;50.502;8.190;2023-01-06T04:11:35;0.50;;;0.50;;
66012;SDS011;52783;50.502;8.190;2023-01-06T04:14:20;1.38;;;0.80;;
66012;SDS011;52783;50.502;8.190;2023-01-06T04:16:45;0.52;;;0.40;;
66012;SDS011;52783;50.502;8.190;2023-01-06T04:19:11;0.22;;;0.22;;
66012;SDS011;52783;50.502;8.190;2023-01-06T04:21:36;0.40;;;0.40;;
66012;SDS011;52783;50.502;8.190;2023-01-06T04:24:02;0.75;;;0.47;;
66012;SDS011;52783;50.502;8.190;2023-01-06T04:26:28;0.88;;;0.45;;
66012;SDS011;52783;50.502;8.190;2023-01-06T04:28:53;2.17;;;0.50;;
66012;SDS011;52783;50.502;8.190;2023-01-06T04:31:19;1.20;;;0.52;;
66012;SDS011;52783;50.502;8.190;2023-01-06T04:33:44;0.95;;;0.50;;
66012;SDS011;52783;50.502;8.190;2023-01-06T04:36:10;2.58;;;0.52;;
66012;SDS011;52783;50.502;8.190;2023-01-06T04:38:35;0.65;;;0.50;;
66012;SDS011;52783;50.502;8.190;2023-01-06T04:41:01;0.65;;;0.50;;
66012;SDS011;52783;50.502;8.190;2023-01-06T04:43:27;1.38;;;0.80;;
66012;SDS011;52783;50.502;8.190;2023-01-06T04:45:52;0.35;;;0.35;;
66012;SDS011;52783;50.502;8.190;2023-01-06T04:48:18;0.85;;;0.50;;
66012;SDS011;52783;50.502;8.190;2023-01-06T04:50:43;0.60;;;0.60;;
66012;SDS011;52783;50.502;8.190;2023-01-06T04:53:10;0.47;;;0.45;;
66012;SDS011;52783;50.502;8.190;2023-01-06T04:55:37;2.00;;;0.57;;
66012;SDS011;52783;50.502;8.190;2023-01-06T04:58:03;0.40;;;0.40;;
66012;SDS011;52783;50.502;8.190;2023-01-06T05:00:29;0.50;;;0.50;;
66012;SDS011;52783;50.502;8.190;2023-01-06T05:02:54;0.73;;;0.70;;
66012;SDS011;52783;50.502;8.190;2023-01-06T05:05:20;0.45;;;0.30;;
66012;SDS011;52783;50.502;8.190;2023-01-06T05:07:46;1.88;;;0.60;;
66012;SDS011;52783;50.502;8.190;2023-01-06T05:10:11;1.90;;;0.80;;
66012;SDS011;52783;50.502;8.190;2023-01-06T05:12:37;4.85;;;0.80;;
66012;SDS011;52783;50.502;8.190;2023-01-06T05:15:02;1.55;;;0.50;;
66012;SDS011;52783;50.502;8.190;2023-01-06T05:17:29;1.00;;;0.63;;
66012;SDS011;52783;50.502;8.190;2023-01-06T05:19:54;2.35;;;1.02;;
66012;SDS011;52783;50.502;8.190;2023-01-06T05:22:20;1.17;;;0.52;;
66012;SDS011;52783;50.502;8.190;2023-01-06T05:24:45;0.47;;;0.40;;
66012;SDS011;52783;50.502;8.190;2023-01-06T05:27:11;3.72;;;0.90;;
66012;SDS011;52783;50.502;8.190;2023-01-06T05:29:36;0.80;;;0.60;;
66012;SDS011;52783;50.502;8.190;2023-01-06T05:32:03;2.03;;;0.50;;
66012;SDS011;52783;50.502;8.190;2023-01-06T05:34:30;0.88;;;0.65;;
66012;SDS011;52783;50.502;8.190;2023-01-06T05:36:56;0.30;;;0.30;;
66012;SDS011;52783;50.502;8.190;2023-01-06T05:39:22;1.38;;;0.60;;
66012;SDS011;52783;50.502;8.190;2023-01-06T05:41:48;2.72;;;0.80;;
66012;SDS011;52783;50.502;8.190;2023-01-06T05:44:13;4.55;;;1.08;;
66012;SDS011;52783;50.502;8.190;2023-01-06T05:46:39;1.00;;;0.63;;
66012;SDS011;52783;50.502;8.190;2023-01-06T05:49:05;2.88;;;0.60;;
66012;SDS011;52783;50.502;8.190;2023-01-06T05:51:30;0.95;;;0.52;;
66012;SDS011;52783;50.502;8.190;2023-01-06T05:53:56;0.82;;;0.77;;
66012;SDS011;52783;50.502;8.190;2023-01-06T05:56:22;1.65;;;0.73;;
66012;SDS011;52783;50.502;8.190;2023-01-06T05:58:49;5.63;;;0.82;;
66012;SDS011;52783;50.502;8.190;2023-01-06T06:03:45;2.00;;;0.70;;
66012;SDS011;52783;50.502;8.190;2023-01-06T06:06:11;2.10;;;0.50;;
66012;SDS011;52783;50.502;8.190;2023-01-06T06:08:36;1.17;;;0.45;;
66012;SDS011;52783;50.502;8.190;2023-01-06T06:11:03;0.77;;;0.57;;
66012;SDS011;52783;50.502;8.190;2023-01-06T06:13:29;2.15;;;0.70;;
66012;SDS011;52783;50.502;8.190;2023-01-06T06:16:02;1.40;;;0.95;;
66012;SDS011;52783;50.502;8.190;2023-01-06T06:18:35;1.95;;;0.88;;
66012;SDS011;52783;50.502;8.190;2023-01-06T06:21:11;0.68;;;0.60;;
66012;SDS011;52783;50.502;8.190;2023-01-06T06:23:39;1.75;;;1.05;;
66012;SDS011;52783;50.502;8.190;2023-01-06T06:26:06;3.78;;;0.95;;
66012;SDS011;52783;50.502;8.190;2023-01-06T06:28:32;3.60;;;0.70;;
66012;SDS011;52783;50.502;8.190;2023-01-06T06:31:09;1.10;;;0.90;;
66012;SDS011;52783;50.502;8.190;2023-01-06T06:33:36;1.95;;;0.90;;
66012;SDS011;52783;50.502;8.190;2023-01-06T06:36:03;3.75;;;0.88;;
66012;SDS011;52783;50.502;8.190;2023-01-06T06:38:29;1.98;;;0.77;;
66012;SDS011;52783;50.502;8.190;2023-01-06T06:40:55;1.15;;;0.82;;
66012;SDS011;52783;50.502;8.190;2023-01-06T06:43:21;1.75;;;1.00;;
66012;SDS011;52783;50.502;8.190;2023-01-06T06:45:47;3.08;;;1.30;;
66012;SDS011;52783;50.502;8.190;2023-01-06T06:48:13;2.45;;;1.10;;
66012;SDS011;52783;50.502;8.190;2023-01-06T06:50:39;3.22;;;0.80;;
66012;SDS011;52783;50.502;8.190;2023-01-06T06:53:05;4.35;;;1.02;;
66012;SDS011;52783;50.502;8.190;2023-01-06T06:55:31;3.03;;;1.23;;
66012;SDS011;52783;50.502;8.190;2023-01-06T06:57:57;1.40;;;0.82;;
66012;SDS011;52783;50.502;8.190;2023-01-06T07:00:23;1.10;;;0.73;;
66012;SDS011;52783;50.502;8.190;2023-01-06T07:02:49;2.00;;;0.95;;
66012;SDS011;52783;50.502;8.190;2023-01-06T07:05:15;3.78;;;1.20;;
66012;SDS011;52783;50.502;8.190;2023-01-06T07:07:41;2.25;;;0.77;;
66012;SDS011;52783;50.502;8.190;2023-01-06T07:10:11;1.70;;;0.90;;
66012;SDS011;52783;50.502;8.190;2023-01-06T07:12:38;6.63;;;1.80;;
66012;SDS011;52783;50.502;8.190;2023-01-06T07:15:04;5.20;;;1.42;;
66012;SDS011;52783;50.502;8.190;2023-01-06T07:17:30;2.22;;;1.20;;
66012;SDS011;52783;50.502;8.190;2023-01-06T07:19:55;4.93;;;1.10;;
66012;SDS011;52783;50.502;8.190;2023-01-06T07:22:21;3.88;;;1.15;;
66012;SDS011;52783;50.502;8.190;2023-01-06T07:24:46;2.90;;;0.47;;
66012;SDS011;52783;50.502;8.190;2023-01-06T07:27:12;0.80;;;0.80;;
66012;SDS011;52783;50.502;8.190;2023-01-06T07:29:37;1.20;;;1.15;;
66012;SDS011;52783;50.502;8.190;2023-01-06T07:32:03;1.58;;;1.02;;
66012;SDS011;52783;50.502;8.190;2023-01-06T07:34:29;2.20;;;1.35;;
66012;SDS011;52783;50.502;8.190;2023-01-06T07:36:55;2.45;;;0.88;;
66012;SDS011;52783;50.502;8.190;2023-01-06T07:39:21;1.77;;;1.27;;
66012;SDS011;52783;50.502;8.190;2023-01-06T07:41:46;1.83;;;1.00;;
66012;SDS011;52783;50.502;8.190;2023-01-06T07:44:12;1.75;;;0.82;;
66012;SDS011;52783;50.502;8.190;2023-01-06T07:46:37;7.93;;;1.38;;
66012;SDS011;52783;50.502;8.190;2023-01-06T07:49:03;1.83;;;0.98;;
66012;SDS011;52783;50.502;8.190;2023-01-06T07:51:28;1.35;;;0.90;;
66012;SDS011;52783;50.502;8.190;2023-01-06T07:53:54;1.52;;;1.02;;
66012;SDS011;52783;50.502;8.190;2023-01-06T07:56:19;1.08;;;0.85;;
66012;SDS011;52783;50.502;8.190;2023-01-06T07:58:48;1.63;;;1.27;;
66012;SDS011;52783;50.502;8.190;2023-01-06T08:01:14;1.75;;;1.50;;
66012;SDS011;52783;50.502;8.190;2023-01-06T08:03:40;2.35;;;1.30;;
66012;SDS011;52783;50.502;8.190;2023-01-06T08:06:09;2.75;;;1.27;;
66012;SDS011;52783;50.502;8.190;2023-01-06T08:08:36;2.33;;;1.05;;
66012;SDS011;52783;50.502;8.190;2023-01-06T08:11:03;3.50;;;1.30;;
66012;SDS011;52783;50.502;8.190;2023-01-06T08:13:31;1.38;;;1.20;;
66012;SDS011;52783;50.502;8.190;2023-01-06T08:15:57;4.95;;;1.30;;
66012;SDS011;52783;50.502;8.190;2023-01-06T08:18:24;5.45;;;1.33;;
66012;SDS011;52783;50.502;8.190;2023-01-06T08:20:49;5.07;;;1.48;;
66012;SDS011;52783;50.502;8.190;2023-01-06T08:23:15;2.70;;;1.38;;
66012;SDS011;52783;50.502;8.190;2023-01-06T08:25:40;3.53;;;1.30;;
66012;SDS011;52783;50.502;8.190;2023-01-06T08:28:06;3.40;;;1.90;;
66012;SDS011;52783;50.502;8.190;2023-01-06T08:30:31;6.53;;;1.27;;
66012;SDS011;52783;50.502;8.190;2023-01-06T08:33:03;3.33;;;1.55;;
66012;SDS011;52783;50.502;8.190;2023-01-06T08:35:29;3.42;;;1.40;;
66012;SDS011;52783;50.502;8.190;2023-01-06T08:37:54;2.83;;;1.25;;
66012;SDS011;52783;50.502;8.190;2023-01-06T08:40:20;8.95;;;1.85;;
66012;SDS011;52783;50.502;8.190;2023-01-06T08:42:46;4.43;;;1.42;;
66012;SDS011;52783;50.502;8.190;2023-01-06T08:45:11;3.42;;;1.33;;
66012;SDS011;52783;50.502;8.190;2023-01-06T08:47:37;1.45;;;1.27;;
66012;SDS011;52783;50.502;8.190;2023-01-06T08:50:03;2.95;;;1.20;;
66012;SDS011;52783;50.502;8.190;2023-01-06T08:52:30;2.28;;;1.40;;
66012;SDS011;52783;50.502;8.190;2023-01-06T08:54:55;2.38;;;1.40;;
66012;SDS011;52783;50.502;8.190;2023-01-06T08:57:23;5.70;;;1.80;;
66012;SDS011;52783;50.502;8.190;2023-01-06T08:59:49;3.13;;;1.67;;
66012;SDS011;52783;50.502;8.190;2023-01-06T09:02:15;4.72;;;1.58;;
66012;SDS011;52783;50.502;8.190;2023-01-06T09:04:40;2.78;;;1.50;;
66012;SDS011;52783;50.502;8.190;2023-01-06T09:07:06;3.22;;;1.70;;
66012;SDS011;52783;50.502;8.190;2023-01-06T09:09:31;5.15;;;1.50;;
66012;SDS011;52783;50.502;8.190;2023-01-06T09:11:57;2.92;;;1.52;;
66012;SDS011;52783;50.502;8.190;2023-01-06T09:14:23;2.75;;;1.55;;
66012;SDS011;52783;50.502;8.190;2023-01-06T09:16:48;1.83;;;1.00;;
66012;SDS011;52783;50.502;8.190;2023-01-06T09:19:14;2.72;;;1.38;;
66012;SDS011;52783;50.502;8.190;2023-01-06T09:21:40;2.55;;;1.00;;
66012;SDS011;52783;50.502;8.190;2023-01-06T09:24:10;2.83;;;0.70;;
66012;SDS011;52783;50.502;8.190;2023-01-06T09:26:37;4.57;;;1.05;;
66012;SDS011;52783;50.502;8.190;2023-01-06T09:29:02;1.85;;;0.80;;
66012;SDS011;52783;50.502;8.190;2023-01-06T09:31:28;4.38;;;1.15;;
66012;SDS011;52783;50.502;8.190;2023-01-06T09:33:53;1.05;;;0.90;;
66012;SDS011;52783;50.502;8.190;2023-01-06T09:36:19;1.77;;;1.10;;
66012;SDS011;52783;50.502;8.190;2023-01-06T09:38:46;0.85;;;0.85;;
66012;SDS011;52783;50.502;8.190;2023-01-06T09:44:15;3.58;;;1.08;;
66012;SDS011;52783;50.502;8.190;2023-01-06T09:46:58;1.00;;;0.90;;
66012;SDS011;52783;50.502;8.190;2023-01-06T09:52:05;1.17;;;1.00;;
66012;SDS011;52783;50.502;8.190;2023-01-06T09:55:02;2.75;;;0.90;;
66012;SDS011;52783;50.502;8.190;2023-01-06T09:57:34;1.48;;;1.10;;
66012;SDS011;52783;50.502;8.190;2023-01-06T10:02:59;0.68;;;0.68;;
66012;SDS011;52783;50.502;8.190;2023-01-06T10:05:37;1.58;;;1.00;;
66012;SDS011;52783;50.502;8.190;2023-01-06T10:19:20;1.10;;;1.00;;
66012;SDS011;52783;50.502;8.190;2023-01-06T10:22:11;1.15;;;0.50;;
66012;SDS011;52783;50.502;8.190;2023-01-06T10:24:58;0.55;;;0.50;;
66012;SDS011;52783;50.502;8.190;2023-01-06T10:27:40;0.73;;;0.70;;
66012;SDS011;52783;50.502;8.190;2023-01-06T10:32:49;0.55;;;0.50;;
66012;SDS011;52783;50.502;8.190;2023-01-06T10:35:16;1.65;;;0.60;;
66012;SDS011;52783;50.502;8.190;2023-01-06T10:37:48;1.20;;;0.77;;
66012;SDS011;52783;50.502;8.190;2023-01-06T10:40:20;1.05;;;0.60;;
66012;SDS011;52783;50.502;8.190;2023-01-06T10:42:52;0.50;;;0.32;;
66012;SDS011;52783;50.502;8.190;2023-01-06T10:45:24;1.20;;;0.55;;
66012;SDS011;52783;50.502;8.190;2023-01-06T10:47:52;0.75;;;0.22;;
66012;SDS011;52783;50.502;8.190;2023-01-06T10:50:19;3.00;;;0.43;;
66012;SDS011;52783;50.502;8.190;2023-01-06T10:52:45;0.80;;;0.38;;
66012;SDS011;52783;50.502;8.190;2023-01-06T10:55:23;1.48;;;0.28;;
66012;SDS011;52783;50.502;8.190;2023-01-06T11:00:55;0.57;;;0.45;;
66012;SDS011;52783;50.502;8.190;2023-01-06T11:03:32;0.45;;;0.38;;
66012;SDS011;52783;50.502;8.190;2023-01-06T11:06:21;0.43;;;0.40;;
66012;SDS011;52783;50.502;8.190;2023-01-06T11:08:50;0.50;;;0.50;;
66012;SDS011;52783;50.502;8.190;2023-01-06T11:11:16;0.43;;;0.43;;
66012;SDS011;52783;50.502;8.190;2023-01-06T11:13:48;1.75;;;0.50;;
66012;SDS011;52783;50.502;8.190;2023-01-06T11:16:20;0.80;;;0.47;;
66012;SDS011;52783;50.502;8.190;2023-01-06T11:18:57;1.55;;;0.50;;
66012;SDS011;52783;50.502;8.190;2023-01-06T11:21:43;1.00;;;0.50;;
66012;SDS011;52783;50.502;8.190;2023-01-06T11:24:14;0.45;;;0.45;;
66012;SDS011;52783;50.502;8.190;2023-01-06T11:29:27;0.95;;;0.50;;
66012;SDS011;52783;50.502;8.190;2023-01-06T11:31:53;0.28;;;0.22;;
66012;SDS011;52783;50.502;8.190;2023-01-06T11:34:21;0.32;;;0.32;;
66012;SDS011;52783;50.502;8.190;2023-01-06T11:36:49;1.60;;;0.43;;
66012;SDS011;52783;50.502;8.190;2023-01-06T11:39:22;2.42;;;0.40;;
66012;SDS011;52783;50.502;8.190;2023-01-06T11:41:50;0.50;;;0.50;;
66012;SDS011;52783;50.502;8.190;2023-01-06T11:44:22;0.50;;;0.50;;
66012;SDS011;52783;50.502;8.190;2023-01-06T11:47:01;3.33;;;0.73;;
66012;SDS011;52783;50.502;8.190;2023-01-06T11:54:41;3.60;;;0.55;;
66012;SDS011;52783;50.502;8.190;2023-01-06T12:00:06;0.68;;;0.57;;
66012;SDS011;52783;50.502;8.190;2023-01-06T12:02:52;0.90;;;0.38;;
66012;SDS011;52783;50.502;8.190;2023-01-06T12:05:46;1.15;;;0.68;;
66012;SDS011;52783;50.502;8.190;2023-01-06T12:08:35;0.30;;;0.30;;
66012;SDS011;52783;50.502;8.190;2023-01-06T12:13:53;0.52;;;0.43;;
66012;SDS011;52783;50.502;8.190;2023-01-06T12:16:38;0.63;;;0.55;;
66012;SDS011;52783;50.502;8.190;2023-01-06T12:19:23;0.75;;;0.47;;
66012;SDS011;52783;50.502;8.190;2023-01-06T12:21:58;0.40;;;0.40;;
66012;SDS011;52783;50.502;8.190;2023-01-06T12:24:25;1.15;;;0.47;;
66012;SDS011;52783;50.502;8.190;2023-01-06T12:26:56;1.05;;;0.47;;
66012;SDS011;52783;50.502;8.190;2023-01-06T12:29:22;1.05;;;0.50;;
66012;SDS011;52783;50.502;8.190;2023-01-06T12:32:06;0.77;;;0.47;;
66012;SDS011;52783;50.502;8.190;2023-01-06T12:34:41;0.68;;;0.65;;
66012;SDS011;52783;50.502;8.190;2023-01-06T12:37:26;0.35;;;0.35;;
66012;SDS011;52783;50.502;8.190;2023-01-06T12:39:58;1.98;;;0.75;;
66012;SDS011;52783;50.502;8.190;2023-01-06T12:42:59;0.40;;;0.40;;
66012;SDS011;52783;50.502;8.190;2023-01-06T12:48:36;0.50;;;0.50;;
66012;SDS011;52783;50.502;8.190;2023-01-06T12:51:25;1.13;;;0.40;;
66012;SDS011;52783;50.502;8.190;2023-01-06T12:54:14;0.75;;;0.73;;
66012;SDS011;52783;50.502;8.190;2023-01-06T13:10:35;0.98;;;0.68;;
66012;SDS011;52783;50.502;8.190;2023-01-06T13:13:20;1.50;;;0.82;;
66012;SDS011;52783;50.502;8.190;2023-01-06T13:15:53;0.75;;;0.60;;
66012;SDS011;52783;50.502;8.190;2023-01-06T13:18:29;0.70;;;0.70;;
66012;SDS011;52783;50.502;8.190;2023-01-06T13:21:12;1.20;;;1.10;;
66012;SDS011;52783;50.502;8.190;2023-01-06T13:29:26;0.70;;;0.65;;
66012;SDS011;52783;50.502;8.190;2023-01-06T13:34:52;0.38;;;0.38;;
66012;SDS011;52783;50.502;8.190;2023-01-06T13:37:36;0.70;;;0.70;;
66012;SDS011;52783;50.502;8.190;2023-01-06T13:40:22;0.45;;;0.45;;
66012;SDS011;52783;50.502;8.190;2023-01-06T13:45:45;0.40;;;0.40;;
66012;SDS011;52783;50.502;8.190;2023-01-06T13:48:16;1.58;;;0.68;;
66012;SDS011;52783;50.502;8.190;2023-01-06T13:50:47;0.70;;;0.70;;
66012;SDS011;52783;50.502;8.190;2023-01-06T13:53:15;0.70;;;0.70;;
66012;SDS011;52783;50.502;8.190;2023-01-06T13:55:43;0.80;;;0.80;;
66012;SDS011;52783;50.502;8.190;2023-01-06T14:01:09;0.70;;;0.60;;
66012;SDS011;52783;50.502;8.190;2023-01-06T14:03:40;0.57;;;0.57;;
66012;SDS011;52783;50.502;8.190;2023-01-06T14:08:48;1.20;;;0.68;;
66012;SDS011;52783;50.502;8.190;2023-01-06T14:11:21;0.70;;;0.70;;
66012;SDS011;52783;50.502;8.190;2023-01-06T14:13:54;0.40;;;0.40;;
66012;SDS011;52783;50.502;8.190;2023-01-06T14:16:36;1.00;;;0.80;;
66012;SDS011;52783;50.502;8.190;2023-01-06T14:19:07;0.52;;;0.52;;
66012;SDS011;52783;50.502;8.190;2023-01-06T14:21:44;0.63;;;0.63;;
66012;SDS011;52783;50.502;8.190;2023-01-06T14:26:56;1.05;;;0.40;;
66012;SDS011;52783;50.502;8.190;2023-01-06T14:32:07;0.55;;;0.55;;
66012;SDS011;52783;50.502;8.190;2023-01-06T14:34:35;0.57;;;0.57;;
66012;SDS011;52783;50.502;8.190;2023-01-06T14:37:02;0.50;;;0.50;;
66012;SDS011;52783;50.502;8.190;2023-01-06T14:39:34;0.75;;;0.65;;
66012;SDS011;52783;50.502;8.190;2023-01-06T14:42:04;0.77;;;0.70;;
66012;SDS011;52783;50.502;8.190;2023-01-06T14:44:41;0.57;;;0.57;;
66012;SDS011;52783;50.502;8.190;2023-01-06T14:47:12;2.08;;;0.60;;
66012;SDS011;52783;50.502;8.190;2023-01-06T14:50:04;0.57;;;0.57;;
66012;SDS011;52783;50.502;8.190;2023-01-06T14:52:39;1.92;;;0.60;;
66012;SDS011;52783;50.502;8.190;2023-01-06T14:55:09;0.50;;;0.50;;
66012;SDS011;52783;50.502;8.190;2023-01-06T14:57:40;0.43;;;0.43;;
66012;SDS011;52783;50.502;8.190;2023-01-06T15:02:55;1.15;;;1.05;;
66012;SDS011;52783;50.502;8.190;2023-01-06T15:05:35;0.70;;;0.70;;
66012;SDS011;52783;50.502;8.190;2023-01-06T15:10:34;0.70;;;0.70;;
66012;SDS011;52783;50.502;8.190;2023-01-06T15:13:19;0.80;;;0.80;;
66012;SDS011;52783;50.502;8.190;2023-01-06T15:16:06;0.75;;;0.70;;
66012;SDS011;52783;50.502;8.190;2023-01-06T15:18:39;1.17;;;0.85;;
66012;SDS011;52783;50.502;8.190;2023-01-06T15:21:06;1.00;;;1.00;;
66012;SDS011;52783;50.502;8.190;2023-01-06T15:23:32;1.38;;;1.20;;
66012;SDS011;52783;50.502;8.190;2023-01-06T15:25:58;1.50;;;1.40;;
66012;SDS011;52783;50.502;8.190;2023-01-06T15:28:24;0.70;;;0.70;;
66012;SDS011;52783;50.502;8.190;2023-01-06T15:30:54;1.30;;;1.20;;
66012;SDS011;52783;50.502;8.190;2023-01-06T15:33:21;1.60;;;1.05;;
66012;SDS011;52783;50.502;8.190;2023-01-06T15:35:49;3.00;;;1.35;;
66012;SDS011;52783;50.502;8.190;2023-01-06T15:38:32;1.02;;;1.02;;
66012;SDS011;52783;50.502;8.190;2023-01-06T15:41:00;2.85;;;0.90;;
66012;SDS011;52783;50.502;8.190;2023-01-06T15:43:27;0.73;;;0.73;;
66012;SDS011;52783;50.502;8.190;2023-01-06T15:48:40;1.73;;;1.50;;
66012;SDS011;52783;50.502;8.190;2023-01-06T15:51:14;2.03;;;1.30;;
66012;SDS011;52783;50.502;8.190;2023-01-06T15:53:41;1.55;;;1.42;;
66012;SDS011;52783;50.502;8.190;2023-01-06T15:56:15;1.33;;;1.23;;
66012;SDS011;52783;50.502;8.190;2023-01-06T15:58:43;0.57;;;0.57;;
66012;SDS011;52783;50.502;8.190;2023-01-06T16:01:14;1.02;;;0.98;;
66012;SDS011;52783;50.502;8.190;2023-01-06T16:03:46;0.60;;;0.60;;
66012;SDS011;52783;50.502;8.190;2023-01-06T16:06:15;2.33;;;1.00;;
66012;SDS011;52783;50.502;8.190;2023-01-06T16:08:49;1.95;;;1.23;;
66012;SDS011;52783;50.502;8.190;2023-01-06T16:14:02;3.10;;;1.00;;
66012;SDS011;52783;50.502;8.190;2023-01-06T16:19:08;1.45;;;1.13;;
66012;SDS011;52783;50.502;8.190;2023-01-06T16:21:39;0.98;;;0.98;;
66012;SDS011;52783;50.502;8.190;2023-01-06T16:24:13;1.13;;;0.90;;
66012;SDS011;52783;50.502;8.190;2023-01-06T16:26:55;0.73;;;0.73;;
66012;SDS011;52783;50.502;8.190;2023-01-06T16:31:49;1.80;;;1.13;;
66012;SDS011;52783;50.502;8.190;2023-01-06T16:36:50;4.55;;;2.20;;
66012;SDS011;52783;50.502;8.190;2023-01-06T16:39:20;1.63;;;1.52;;
66012;SDS011;52783;50.502;8.190;2023-01-06T16:44:26;1.70;;;1.50;;
66012;SDS011;52783;50.502;8.190;2023-01-06T16:49:24;1.50;;;1.40;;
66012;SDS011;52783;50.502;8.190;2023-01-06T16:51:50;2.05;;;1.80;;
66012;SDS011;52783;50.502;8.190;2023-01-06T16:54:16;1.70;;;1.60;;
66012;SDS011;52783;50.502;8.190;2023-01-06T16:56:43;1.20;;;1.20;;
66012;SDS011;52783;50.502;8.190;2023-01-06T16:59:14;1.67;;;1.50;;
66012;SDS011;52783;50.502;8.190;2023-01-06T17:01:42;1.60;;;1.50;;
66012;SDS011;52783;50.502;8.190;2023-01-06T17:04:09;2.08;;;1.88;;
66012;SDS011;52783;50.502;8.190;2023-01-06T17:06:37;1.95;;;1.48;;
66012;SDS011;52783;50.502;8.190;2023-01-06T17:09:08;1.80;;;1.70;;
66012;SDS011;52783;50.502;8.190;2023-01-06T17:11:45;1.30;;;1.20;;
66012;SDS011;52783;50.502;8.190;2023-01-06T17:14:13;1.85;;;1.75;;
66012;SDS011;52783;50.502;8.190;2023-01-06T17:16:40;1.60;;;1.50;;
66012;SDS011;52783;50.502;8.190;2023-01-06T17:21:46;1.20;;;1.20;;
66012;SDS011;52783;50.502;8.190;2023-01-06T17:24:23;1.88;;;1.70;;
66012;SDS011;52783;50.502;8.190;2023-01-06T17:29:21;4.35;;;3.63;;
66012;SDS011;52783;50.502;8.190;2023-01-06T17:31:51;3.45;;;2.90;;